Time;durP1;ratioP1;P1;durP2;ratioP2;P2;SDS_P1;SDS_P2;PMS_P1;PMS_P2;Temp;Humidity;BMP_temperature;BMP_pressure;BME280_temperature;BME280_humidity;BME280_pressure;Samples;Min_cycle;Max_cycle;Signal;HPM_P1;HPM_P2
2022/04/29 00:01:27;;;;;;;;;;;;;;;11.47;65.16;101159.53;5077437;28;19934;-66
2022/04/29 00:04:11;;;;;;;;;;;;;;;11.48;65.21;101153.50;5090717;28;20013;-65
2022/04/29 00:07:07;;;;;;;;;;;;;;;11.49;65.17;101144.00;5077337;28;19927;-65
2022/04/29 00:09:59;;;;;;;;;;;;;;;11.49;65.13;101137.09;5062399;28;19997;-65
2022/04/29 00:12:49;;;;;;;;;;;;;;;11.49;65.31;101136.22;5062533;28;19927;-65
2022/04/29 00:15:38;;;;;;;;;;;;;;;11.50;65.28;101127.59;5062460;28;19990;-65
2022/04/29 00:18:28;;;;;;;;;;;;;;;11.50;65.35;101128.47;5062071;28;19959;-65
2022/04/29 00:21:21;;;;;;;;;;;;;;;11.50;65.19;101117.22;5090778;28;20062;-65
2022/04/29 00:24:05;;;;;;;;;;;;;;;11.51;65.33;101127.63;5061820;28;19931;-65
2022/04/29 00:26:49;;;;;;;;;;;;;;;11.50;65.35;101119.81;5076747;28;19927;-65
2022/04/29 00:29:39;;;;;;;;;;;;;;;11.50;65.27;101118.09;5076773;28;19969;-65
2022/04/29 00:32:29;;;;;;;;;;;;;;;11.49;65.11;101115.47;5061534;28;20360;-65
2022/04/29 00:35:21;;;;;;;;;;;;;;;11.49;65.43;101110.25;5061431;28;20019;-65
2022/04/29 00:38:15;;;;;;;;;;;;;;;11.48;65.26;101106.78;5061505;28;20030;-65
2022/04/29 00:41:05;;;;;;;;;;;;;;;11.49;65.42;101099.88;5076531;28;20366;-65
2022/04/29 00:44:01;;;;;;;;;;;;;;;11.48;65.55;101100.72;5061553;28;20333;-65
2022/04/29 00:46:50;;;;;;;;;;;;;;;11.45;65.42;101098.88;5061327;28;19931;-66
2022/04/29 00:49:34;;;;;;;;;;;;;;;11.44;65.34;101094.56;5061940;28;20366;-65
2022/04/29 00:52:24;;;;;;;;;;;;;;;11.44;65.50;101097.16;5076761;28;20283;-65
2022/04/29 00:55:14;;;;;;;;;;;;;;;11.43;65.05;101090.19;5061626;28;20009;-66
2022/04/29 00:58:12;;;;;;;;;;;;;;;11.43;65.03;101091.06;5061479;28;19927;-65
2022/04/29 01:00:55;;;;;;;;;;;;;;;11.43;65.40;101088.47;5061158;28;20032;-65
2022/04/29 01:03:48;;;;;;;;;;;;;;;11.44;65.45;101089.38;5073932;28;19926;-65
2022/04/29 01:06:41;;;;;;;;;;;;;;;11.44;65.13;101094.56;5061299;28;20378;-66
2022/04/29 01:09:28;;;;;;;;;;;;;;;11.46;65.63;101099.78;5061444;28;20406;-65
2022/04/29 01:12:20;;;;;;;;;;;;;;;11.47;65.56;101101.53;5076110;28;19927;-65
2022/04/29 01:15:17;;;;;;;;;;;;;;;11.46;65.02;101094.59;5060646;28;19931;-66
2022/04/29 01:18:11;;;;;;;;;;;;;;;11.44;65.32;101097.16;5060660;28;20283;-66
2022/04/29 01:21:03;;;;;;;;;;;;;;;11.44;65.35;101091.97;5060973;28;19969;-66
2022/04/29 01:23:52;;;;;;;;;;;;;;;11.45;65.44;101091.09;5060680;28;19926;-66
2022/04/29 01:26:39;;;;;;;;;;;;;;;11.44;65.46;101089.38;5060450;28;19927;-65
2022/04/29 01:29:29;;;;;;;;;;;;;;;11.45;65.00;101083.31;5089116;28;19971;-65
2022/04/29 01:32:19;;;;;;;;;;;;;;;11.45;65.34;101088.50;5060988;28;19928;-65
2022/04/29 01:35:08;;;;;;;;;;;;;;;11.45;65.43;101082.44;5060857;28;19928;-66
2022/04/29 01:37:57;;;;;;;;;;;;;;;11.44;65.20;101079.00;5060478;28;19927;-65
2022/04/29 01:40:47;;;;;;;;;;;;;;;11.45;65.41;101091.09;5089207;28;19970;-65
2022/04/29 01:43:32;;;;;;;;;;;;;;;11.45;65.27;101091.09;5060782;28;19927;-65
2022/04/29 01:46:16;;;;;;;;;;;;;;;11.43;65.44;101088.47;5075233;28;20027;-66
2022/04/29 01:49:05;;;;;;;;;;;;;;;11.44;65.29;101086.78;5075080;28;20007;-65
2022/04/29 01:51:55;;;;;;;;;;;;;;;11.42;65.43;101078.91;5060358;28;19935;-66
2022/04/29 01:54:47;;;;;;;;;;;;;;;11.45;65.33;101090.22;5060150;28;19927;-65
2022/04/29 01:57:36;;;;;;;;;;;;;;;11.44;65.41;101076.38;5075153;28;19927;-66
2022/04/29 02:00:23;;;;;;;;;;;;;;;11.43;65.17;101090.19;5088712;28;20414;-66
2022/04/29 02:03:12;;;;;;;;;;;;;;;11.43;65.33;101082.41;5059784;28;19973;-66
2022/04/29 02:06:02;;;;;;;;;;;;;;;11.44;65.56;101079.00;5059929;28;19927;-67
2022/04/29 02:08:48;;;;;;;;;;;;;;;11.42;65.51;101078.06;5060066;28;20398;-65
2022/04/29 02:11:38;;;;;;;;;;;;;;;11.42;65.50;101081.53;5059995;28;20024;-66
2022/04/29 02:14:28;;;;;;;;;;;;;;;11.41;65.55;101079.75;5074413;28;19928;-66
2022/04/29 02:17:13;;;;;;;;;;;;;;;11.41;65.25;101071.97;5087922;28;20391;-65
2022/04/29 02:19:57;;;;;;;;;;;;;;;11.41;65.53;101069.38;5088174;28;19966;-66
2022/04/29 02:22:49;;;;;;;;;;;;;;;11.41;65.62;101069.38;5075052;28;19931;-65
2022/04/29 02:25:39;;;;;;;;;;;;;;;11.41;65.38;101063.31;5059307;28;19927;-65
2022/04/29 02:28:34;;;;;;;;;;;;;;;11.40;65.29;101057.22;5059402;28;19928;-65
2022/04/29 02:31:24;;;;;;;;;;;;;;;11.40;65.67;101064.16;5074148;28;19935;-66
2022/04/29 02:34:17;;;;;;;;;;;;;;;11.41;65.28;101058.13;5059506;28;19928;-66
2022/04/29 02:37:07;;;;;;;;;;;;;;;11.40;65.35;101061.56;5074315;28;20062;-66
2022/04/29 02:39:54;;;;;;;;;;;;;;;11.39;65.52;101058.06;5059349;28;19927;-65
2022/04/29 02:42:38;;;;;;;;;;;;;;;11.37;65.56;101051.09;5058912;28;19972;-65
2022/04/29 02:45:22;;;;;;;;;;;;;;;11.37;65.10;101058.88;5058903;28;19970;-65
2022/04/29 02:48:14;;;;;;;;;;;;;;;11.35;65.12;101044.97;5074832;28;19927;-65
2022/04/29 02:51:06;;;;;;;;;;;;;;;11.34;65.29;101054.47;5059367;28;19927;-65
2022/04/29 02:53:56;;;;;;;;;;;;;;;11.35;65.65;101052.75;5059430;28;19927;-65
2022/04/29 02:56:51;;;;;;;;;;;;;;;11.33;65.67;101054.41;5058963;28;19928;-65
2022/04/29 02:59:44;;;;;;;;;;;;;;;11.32;65.13;101063.94;5074279;28;19931;-66
2022/04/29 03:02:36;;;;;;;;;;;;;;;11.31;65.34;101056.97;5052849;28;20004;-65
2022/04/29 03:05:22;;;;;;;;;;;;;;;11.31;65.54;101061.28;5053039;28;20018;-65
2022/04/29 03:08:09;;;;;;;;;;;;;;;11.32;65.27;101057.84;5054023;28;19975;-66
2022/04/29 03:10:53;;;;;;;;;;;;;;;11.33;65.66;101055.31;5053987;28;19928;-65
2022/04/29 03:13:46;;;;;;;;;;;;;;;11.33;65.60;101059.59;5053654;28;19974;-65
2022/04/29 03:16:36;;;;;;;;;;;;;;;11.33;65.74;101052.72;5053316;28;19981;-65
2022/04/29 03:19:25;;;;;;;;;;;;;;;11.33;65.28;101041.44;5052733;28;20364;-66
2022/04/29 03:22:20;;;;;;;;;;;;;;;11.34;65.67;101045.78;5053119;28;19967;-66
2022/04/29 03:25:10;;;;;;;;;;;;;;;11.33;65.36;101052.72;5052546;28;19943;-65
2022/04/29 03:27:59;;;;;;;;;;;;;;;11.33;65.81;101052.72;5052189;28;19927;-66
2022/04/29 03:30:49;;;;;;;;;;;;;;;11.33;65.36;101044.03;5052418;28;19927;-65
2022/04/29 03:33:38;;;;;;;;;;;;;;;11.33;65.35;101044.94;5053780;28;19927;-65
2022/04/29 03:36:25;;;;;;;;;;;;;;;11.34;65.46;101044.09;5052652;28;19928;-66
2022/04/29 03:39:09;;;;;;;;;;;;;;;11.33;65.50;101039.75;5067135;28;20386;-66
2022/04/29 03:41:52;;;;;;;;;;;;;;;11.33;65.48;101039.75;5053346;28;19927;-65
2022/04/29 03:44:45;;;;;;;;;;;;;;;11.33;65.30;101050.13;5052407;28;19970;-65
2022/04/29 03:47:35;;;;;;;;;;;;;;;11.33;65.31;101038.84;5052598;28;19928;-65
2022/04/29 03:50:27;;;;;;;;;;;;;;;11.32;65.34;101037.06;5052409;28;19928;-65
2022/04/29 03:53:17;;;;;;;;;;;;;;;11.32;65.69;101034.47;5053516;28;19947;-65
2022/04/29 03:56:06;;;;;;;;;;;;;;;11.32;65.85;101035.38;5052187;28;20398;-65
2022/04/29 03:58:58;;;;;;;;;;;;;;;11.32;65.78;101037.97;5052916;28;19990;-66
2022/04/29 04:01:48;;;;;;;;;;;;;;;11.31;65.80;101043.09;5055069;28;20433;-65
2022/04/29 04:04:38;;;;;;;;;;;;;;;11.31;65.42;101038.81;5086800;28;19927;-65
2022/04/29 04:07:32;;;;;;;;;;;;;;;11.30;65.50;101037.03;5086603;28;19927;-65
2022/04/29 04:10:26;;;;;;;;;;;;;;;11.30;65.57;101033.56;5073551;28;19966;-65
2022/04/29 04:13:10;;;;;;;;;;;;;;;11.29;65.64;101042.22;5073191;28;19928;-65
2022/04/29 04:16:03;;;;;;;;;;;;;;;11.29;65.76;101050.00;5073981;28;19927;-64
2022/04/29 04:18:53;;;;;;;;;;;;;;;11.30;65.57;101043.94;5058284;28;19982;-65
2022/04/29 04:21:42;;;;;;;;;;;;;;;11.28;65.98;101049.09;5086612;28;20298;-65
2022/04/29 04:24:38;;;;;;;;;;;;;;;11.28;65.80;101051.69;5057986;28;20077;-65
2022/04/29 04:27:27;;;;;;;;;;;;;;;11.27;65.45;101045.63;5073125;28;19927;-65
2022/04/29 04:30:17;;;;;;;;;;;;;;;11.26;65.90;101043.88;5058506;28;20421;-65
2022/04/29 04:33:01;;;;;;;;;;;;;;;11.27;66.00;101044.75;5086655;28;19927;-65
2022/04/29 04:35:45;;;;;;;;;;;;;;;11.27;65.93;101048.22;5073008;28;19944;-65
2022/04/29 04:38:31;;;;;;;;;;;;;;;11.27;66.03;101055.13;5073560;28;19928;-65
2022/04/29 04:41:21;;;;;;;;;;;;;;;11.27;65.69;101052.53;5075903;28;20066;-65
2022/04/29 04:44:10;;;;;;;;;;;;;;;11.26;65.90;101055.94;5089891;28;19947;-65
2022/04/29 04:47:03;;;;;;;;;;;;;;;11.25;65.67;101043.81;5077012;28;19927;-65
2022/04/29 04:49:56;;;;;;;;;;;;;;;11.25;65.76;101036.91;5060585;28;19970;-65
2022/04/29 04:52:48;;;;;;;;;;;;;;;11.23;65.73;101033.41;5061639;28;19927;-65
2022/04/29 04:55:38;;;;;;;;;;;;;;;11.23;65.79;101043.78;5076488;28;19927;-65
2022/04/29 04:58:22;;;;;;;;;;;;;;;11.22;65.91;101042.00;5061164;28;19943;-65
2022/04/29 05:01:05;;;;;;;;;;;;;;;11.20;65.98;101054.06;5076357;28;20402;-65
2022/04/29 05:04:00;;;;;;;;;;;;;;;11.20;65.60;101056.66;5076347;28;20386;-65
2022/04/29 05:06:50;;;;;;;;;;;;;;;11.21;65.97;101058.41;5061449;28;19927;-65
2022/04/29 05:09:40;;;;;;;;;;;;;;;11.20;66.12;101055.78;5089397;28;19946;-65
2022/04/29 05:12:27;;;;;;;;;;;;;;;11.19;65.75;101056.63;5061079;28;19999;-65
2022/04/29 05:15:22;;;;;;;;;;;;;;;11.17;65.70;101053.97;5075935;28;19974;-65
2022/04/29 05:18:15;;;;;;;;;;;;;;;11.16;65.80;101049.59;5061158;28;19928;-65
2022/04/29 05:21:00;;;;;;;;;;;;;;;11.16;65.95;101052.19;5061030;28;19928;-66
2022/04/29 05:23:58;;;;;;;;;;;;;;;11.18;66.10;101060.06;5060690;28;19927;-65
2022/04/29 05:26:42;;;;;;;;;;;;;;;11.18;65.75;101050.53;5060583;28;20311;-65
2022/04/29 05:29:26;;;;;;;;;;;;;;;11.18;66.15;101055.72;5075730;28;19947;-65
2022/04/29 05:32:12;;;;;;;;;;;;;;;11.17;65.91;101061.75;5075886;28;19967;-65
2022/04/29 05:35:09;;;;;;;;;;;;;;;11.17;66.14;101056.56;5060657;28;19970;-65
2022/04/29 05:37:59;;;;;;;;;;;;;;;11.18;65.71;101065.25;5075415;28;19977;-65
2022/04/29 05:44:01;;;;;;;;;;;;;;;11.19;65.90;101056.63;5075622;28;20402;-65
2022/04/29 05:46:53;;;;;;;;;;;;;;;11.17;65.88;101053.09;5075453;28;19974;-65
2022/04/29 05:49:46;;;;;;;;;;;;;;;11.17;65.95;101071.25;5060679;28;20359;-65
2022/04/29 05:52:30;;;;;;;;;;;;;;;11.18;66.30;101067.84;5059997;28;20011;-65
2022/04/29 05:55:14;;;;;;;;;;;;;;;11.17;66.24;101063.47;5075255;28;19927;-65
2022/04/29 05:58:06;;;;;;;;;;;;;;;11.17;65.86;101064.34;5075117;28;19927;-65
2022/04/29 06:00:59;;;;;;;;;;;;;;;11.17;66.29;101066.06;5060246;28;19927;-65
2022/04/29 06:03:48;;;;;;;;;;;;;;;11.18;66.30;101057.47;5059905;28;19973;-65
2022/04/29 06:06:35;;;;;;;;;;;;;;;11.17;66.06;101058.28;5060267;28;19928;-65
2022/04/29 06:09:25;;;;;;;;;;;;;;;11.16;66.48;101057.38;5088479;28;19928;-65
2022/04/29 06:12:11;;;;;;;;;;;;;;;11.17;66.42;101058.28;5088350;28;19927;-66
2022/04/29 06:15:01;;;;;;;;;;;;;;;11.15;66.11;101068.59;5074466;28;20349;-65
2022/04/29 06:17:48;;;;;;;;;;;;;;;11.13;66.10;101057.31;5060121;28;20478;-65
2022/04/29 06:20:35;;;;;;;;;;;;;;;11.12;66.47;101071.13;5074757;28;19928;-65
2022/04/29 06:23:25;;;;;;;;;;;;;;;11.10;66.64;101072.78;5074235;28;19928;-65
2022/04/29 06:26:15;;;;;;;;;;;;;;;11.09;66.57;101071.91;5059684;28;19928;-64
2022/04/29 06:29:04;;;;;;;;;;;;;;;11.10;66.57;101071.06;5074571;28;20398;-65
2022/04/29 06:31:54;;;;;;;;;;;;;;;11.10;66.33;101077.97;5088727;28;19927;-65
2022/04/29 06:34:48;;;;;;;;;;;;;;;11.09;66.26;101077.09;5058358;28;19927;-65
2022/04/29 06:37:41;;;;;;;;;;;;;;;11.07;66.29;101073.56;5059673;28;19927;-65
2022/04/29 06:40:31;;;;;;;;;;;;;;;11.07;66.19;101089.13;5074698;28;19927;-66
2022/04/29 06:43:21;;;;;;;;;;;;;;;11.07;66.39;101088.25;5074242;28;20489;-66
2022/04/29 06:46:08;;;;;;;;;;;;;;;11.05;66.31;101084.72;5058709;28;19977;-65
2022/04/29 06:48:56;;;;;;;;;;;;;;;11.06;66.45;101083.91;5059467;28;20453;-65
2022/04/29 06:51:51;;;;;;;;;;;;;;;11.05;66.42;101089.91;5087807;28;19928;-65
2022/04/29 06:54:43;;;;;;;;;;;;;;;11.04;66.44;101083.88;5059438;28;19927;-65
2022/04/29 06:57:34;;;;;;;;;;;;;;;11.05;66.85;101082.13;5074028;28;20005;-65
2022/04/29 07:00:23;;;;;;;;;;;;;;;11.04;66.54;101093.34;5059491;28;20011;-65
2022/04/29 07:03:10;;;;;;;;;;;;;;;11.03;66.37;101102.84;5057884;28;20299;-65
2022/04/29 07:05:57;;;;;;;;;;;;;;;11.04;66.36;101098.53;5058960;28;19928;-65
2022/04/29 07:08:46;;;;;;;;;;;;;;;11.05;66.46;101100.28;5074350;28;20335;-64
2022/04/29 07:11:33;;;;;;;;;;;;;;;11.04;66.54;101091.66;5074561;28;19931;-65
2022/04/29 07:14:20;;;;;;;;;;;;;;;11.05;66.54;101096.00;5073661;28;20305;-65
2022/04/29 07:17:15;;;;;;;;;;;;;;;11.05;66.41;101096.00;5073942;28;19966;-66
2022/04/29 07:20:05;;;;;;;;;;;;;;;11.05;66.52;101089.91;5087552;28;19927;-65
2022/04/29 07:22:54;;;;;;;;;;;;;;;11.05;66.92;101088.22;5058862;28;19928;-65
2022/04/29 07:25:41;;;;;;;;;;;;;;;11.05;66.44;101080.44;5073798;28;19990;-65
2022/04/29 07:28:30;;;;;;;;;;;;;;;11.05;66.47;101080.44;5087194;28;19927;-65
2022/04/29 07:31:21;;;;;;;;;;;;;;;11.05;66.52;101079.53;5058345;28;19926;-66
2022/04/29 07:34:14;;;;;;;;;;;;;;;11.05;67.00;101084.72;5086948;28;20398;-65
2022/04/29 07:43:09;;;;;;;;;;;;;;;11.08;66.75;101090.03;5073654;28;19997;-65
2022/04/29 07:46:01;;;;;;;;;;;;;;;11.08;67.00;101085.69;5073339;28;19943;-65
2022/04/29 07:48:48;;;;;;;;;;;;;;;11.07;66.73;101078.75;5058921;28;19982;-65
2022/04/29 07:51:38;;;;;;;;;;;;;;;11.10;67.00;101075.38;5073576;28;19928;-65
2022/04/29 07:54:27;;;;;;;;;;;;;;;11.10;66.75;101075.38;5057782;28;20295;-65
2022/04/29 07:57:22;;;;;;;;;;;;;;;11.11;66.55;101071.97;5086644;28;19928;-65
2022/04/29 08:00:18;;;;;;;;;;;;;;;11.11;67.05;101074.56;5073547;28;20302;-65
2022/04/29 08:03:04;;;;;;;;;;;;;;;11.09;66.76;101058.91;5058137;28;19974;-65
2022/04/29 08:05:53;;;;;;;;;;;;;;;11.11;66.75;101065.03;5058347;28;19979;-65
2022/04/29 08:08:41;;;;;;;;;;;;;;;11.14;67.03;101073.75;5057548;28;19928;-64
2022/04/29 08:11:27;;;;;;;;;;;;;;;11.14;66.86;101085.00;5073363;28;19942;-65
2022/04/29 08:14:11;;;;;;;;;;;;;;;11.14;66.75;101079.81;5059302;28;20352;-65
2022/04/29 08:16:55;;;;;;;;;;;;;;;11.14;67.18;101079.81;5077394;28;20355;-65
2022/04/29 08:19:44;;;;;;;;;;;;;;;11.14;66.81;101089.31;5076966;28;19927;-65
2022/04/29 08:22:34;;;;;;;;;;;;;;;11.15;66.71;101094.53;5077363;28;19935;-65
2022/04/29 08:25:21;;;;;;;;;;;;;;;11.15;66.94;101097.13;5061841;28;19927;-65
2022/04/29 08:28:10;;;;;;;;;;;;;;;11.16;66.91;101104.09;5076841;28;20405;-66
2022/04/29 08:30:59;;;;;;;;;;;;;;;11.17;66.92;101102.41;5061634;28;19974;-66
2022/04/29 08:33:46;;;;;;;;;;;;;;;11.18;66.93;101109.34;5061899;28;19927;-66
2022/04/29 08:36:35;;;;;;;;;;;;;;;11.18;67.13;101104.16;5076428;28;19953;-65
2022/04/29 08:39:22;;;;;;;;;;;;;;;11.19;66.90;101103.31;5061942;28;20410;-65
2022/04/29 08:42:14;;;;;;;;;;;;;;;11.18;67.23;101093.78;5076554;28;19927;-65
2022/04/29 08:45:01;;;;;;;;;;;;;;;11.17;66.94;101095.47;5076821;28;19927;-65
2022/04/29 08:47:46;;;;;;;;;;;;;;;11.19;66.71;101087.75;5061389;28;20352;-65
2022/04/29 08:50:35;;;;;;;;;;;;;;;11.18;66.93;101081.66;5061582;28;20102;-66
2022/04/29 08:53:31;;;;;;;;;;;;;;;11.19;66.77;101093.81;5061731;28;19928;-65
2022/04/29 08:59:22;;;;;;;;;;;;;;;11.20;66.96;101090.38;5076797;28;20280;-65
2022/04/29 09:02:15;;;;;;;;;;;;;;;11.20;66.75;101098.16;5061080;28;20397;-65
2022/04/29 09:05:09;;;;;;;;;;;;;;;11.20;67.28;101102.50;5061333;28;19939;-65
2022/04/29 09:07:53;;;;;;;;;;;;;;;11.19;66.94;101111.13;5061140;28;19935;-65
2022/04/29 09:10:50;;;;;;;;;;;;;;;11.21;66.84;101112.03;5089581;28;20065;-65
2022/04/29 09:13:42;;;;;;;;;;;;;;;11.20;66.96;101103.38;5075956;28;19927;-66
2022/04/29 09:16:26;;;;;;;;;;;;;;;11.21;66.77;101105.13;5060834;28;19927;-65
2022/04/29 09:19:30;;;;;;;;;;;;;;;11.23;66.82;101098.28;5075926;28;19926;-65
2022/04/29 09:22:16;;;;;;;;;;;;;;;11.25;66.95;101096.59;5060469;28;20410;-66
2022/04/29 09:25:08;;;;;;;;;;;;;;;11.25;66.84;101091.41;5060712;28;19927;-67
2022/04/29 09:28:00;;;;;;;;;;;;;;;11.27;67.31;101107.03;5060450;28;19963;-65
2022/04/29 09:30:50;;;;;;;;;;;;;;;11.27;67.12;101097.53;5060946;28;20028;-65
2022/04/29 09:33:37;;;;;;;;;;;;;;;11.30;66.99;101101.03;5075844;28;19982;-65
2022/04/29 09:36:28;;;;;;;;;;;;;;;11.29;67.24;101094.09;5060628;28;19966;-65
2022/04/29 09:39:27;;;;;;;;;;;;;;;11.31;67.24;101097.59;5061031;28;19977;-66
2022/04/29 09:42:15;;;;;;;;;;;;;;;11.29;67.15;101105.34;5060826;28;20382;-66
2022/04/29 09:45:09;;;;;;;;;;;;;;;11.30;67.14;101101.03;5075507;28;19927;-66
2022/04/29 09:47:54;;;;;;;;;;;;;;;11.31;67.21;101102.78;5060187;28;19927;-66
2022/04/29 09:50:45;;;;;;;;;;;;;;;11.32;67.30;101100.25;5075478;28;19928;-66
2022/04/29 09:53:37;;;;;;;;;;;;;;;11.33;67.12;101099.44;5060170;28;20406;-65
2022/04/29 09:56:32;;;;;;;;;;;;;;;11.33;67.37;101098.53;5060156;28;19974;-65
2022/04/29 09:59:22;;;;;;;;;;;;;;;11.33;67.30;101093.34;5075379;28;19928;-66
2022/04/29 10:02:12;;;;;;;;;;;;;;;11.32;66.94;101089.88;5060048;28;20025;-66
2022/04/29 10:05:07;;;;;;;;;;;;;;;11.34;67.08;101087.31;5060166;28;19947;-67
2022/04/29 10:07:55;;;;;;;;;;;;;;;11.34;67.02;101088.22;5075240;28;20418;-66
2022/04/29 10:10:42;;;;;;;;;;;;;;;11.32;67.34;101076.91;5059940;28;19927;-65
2022/04/29 10:13:27;;;;;;;;;;;;;;;11.35;67.19;101081.28;5059928;28;20354;-66
2022/04/29 10:16:20;;;;;;;;;;;;;;;11.36;67.36;101077.88;5059738;28;19927;-65
2022/04/29 10:22:18;;;;;;;;;;;;;;;11.37;67.27;101071.84;5074834;28;19955;-65
2022/04/29 10:25:12;;;;;;;;;;;;;;;11.35;67.31;101074.41;5059760;28;19927;-66
2022/04/29 10:28:02;;;;;;;;;;;;;;;11.34;66.99;101075.25;5059849;28;20368;-65
2022/04/29 10:31:10;;;;;;;;;;;;;;;11.35;66.97;101070.91;5059758;28;19966;-65
2022/04/29 10:34:15;;;;;;;;;;;;;;;11.35;67.40;101081.28;5059811;28;19927;-66
2022/04/29 10:36:59;;;;;;;;;;;;;;;11.35;67.29;101084.78;5069385;28;19946;-65
2022/04/29 10:40:05;;;;;;;;;;;;;;;11.34;67.33;101083.03;5059191;28;19928;-65
2022/04/29 10:43:09;;;;;;;;;;;;;;;11.35;67.14;101086.47;5074381;28;19973;-65
2022/04/29 10:46:08;;;;;;;;;;;;;;;11.36;67.19;101085.66;5059408;28;19928;-65
2022/04/29 10:48:58;;;;;;;;;;;;;;;11.37;67.30;101080.50;5073820;28;19927;-65
2022/04/29 10:51:51;;;;;;;;;;;;;;;11.37;66.96;101064.91;5059475;28;19973;-66
2022/04/29 10:54:45;;;;;;;;;;;;;;;11.36;67.03;101060.59;5074267;28;20114;-65
2022/04/29 10:57:40;;;;;;;;;;;;;;;11.36;67.14;101060.59;5059224;28;19959;-65
2022/04/29 11:00:24;;;;;;;;;;;;;;;11.37;67.32;101056.28;5059263;28;20022;-66
2022/04/29 11:03:26;;;;;;;;;;;;;;;11.36;67.21;101059.69;5087469;28;19926;-65
2022/04/29 11:06:17;;;;;;;;;;;;;;;11.37;66.99;101043.28;5073729;28;19927;-66
2022/04/29 11:09:39;;;;;;;;;;;;;;;11.37;67.49;101053.69;5072140;28;20402;-65
2022/04/29 11:12:29;;;;;;;;;;;;;;;11.36;67.29;101046.72;5066986;28;20353;-65
2022/04/29 11:15:18;;;;;;;;;;;;;;;11.38;67.32;101052.84;5087359;28;20016;-65
2022/04/29 11:18:15;;;;;;;;;;;;;;;11.36;66.99;101038.94;5058521;28;19966;-65
2022/04/29 11:27:23;;;;;;;;;;;;;;;11.39;67.38;101028.66;5074087;28;20382;-65
2022/04/29 11:30:08;;;;;;;;;;;;;;;11.39;67.51;101028.66;5058598;28;19971;-65
2022/04/29 11:32:52;;;;;;;;;;;;;;;11.42;67.32;101023.56;5074127;28;19974;-65
2022/04/29 11:35:47;;;;;;;;;;;;;;;11.43;67.20;101015.78;5073530;28;19931;-65
2022/04/29 11:38:51;;;;;;;;;;;;;;;11.42;67.24;101006.25;5058364;28;19944;-65
2022/04/29 11:41:50;;;;;;;;;;;;;;;11.43;67.06;101007.13;5074009;28;19967;-65
2022/04/29 11:44:49;;;;;;;;;;;;;;;11.45;67.29;101017.56;5058762;28;19963;-66
2022/04/29 11:47:39;;;;;;;;;;;;;;;11.45;67.22;101015.81;5058034;28;19958;-66
2022/04/29 11:50:33;;;;;;;;;;;;;;;11.45;66.99;101008.03;5061947;28;19927;-65
2022/04/29 11:53:18;;;;;;;;;;;;;;;11.45;67.25;101008.03;5062405;28;20354;-65
2022/04/29 11:56:02;;;;;;;;;;;;;;;11.46;66.76;101009.78;5077768;28;19927;-65
2022/04/29 11:58:46;;;;;;;;;;;;;;;11.46;66.79;101008.94;5062587;28;19986;-65
2022/04/29 12:01:38;;;;;;;;;;;;;;;11.45;67.21;101001.97;5090740;28;19965;-65
2022/04/29 12:04:28;;;;;;;;;;;;;;;11.43;67.23;100994.16;5062960;28;20022;-65
2022/04/29 12:07:12;;;;;;;;;;;;;;;11.43;66.88;101004.53;5062497;28;19962;-66
2022/04/29 12:10:14;;;;;;;;;;;;;;;11.45;66.95;101005.44;5076903;28;19975;-65
2022/04/29 12:13:04;;;;;;;;;;;;;;;11.44;67.11;101011.50;5062567;28;20382;-65
2022/04/29 12:15:56;;;;;;;;;;;;;;;11.45;67.04;101000.25;5062142;28;20292;-65
2022/04/29 12:18:47;;;;;;;;;;;;;;;11.43;66.82;101005.41;5077546;28;19926;-65
2022/04/29 12:21:36;;;;;;;;;;;;;;;11.46;67.13;101012.38;5062393;28;19955;-66
2022/04/29 12:24:28;;;;;;;;;;;;;;;11.45;67.18;101015.81;5077095;28;19942;-65
2022/04/29 12:27:16;;;;;;;;;;;;;;;11.44;67.27;101014.09;5062486;28;19931;-65
2022/04/29 12:36:10;;;;;;;;;;;;;;;11.47;67.09;101015.88;5076835;28;19928;-65
2022/04/29 12:39:04;;;;;;;;;;;;;;;11.49;66.96;101014.22;5061610;28;19943;-65
2022/04/29 12:42:07;;;;;;;;;;;;;;;11.47;67.05;101008.09;5061409;28;19971;-66
2022/04/29 12:45:18;;;;;;;;;;;;;;;11.47;67.15;101015.88;5061436;28;19927;-66
2022/04/29 12:48:14;;;;;;;;;;;;;;;11.48;67.26;101015.91;5076643;28;19927;-65
2022/04/29 12:51:07;;;;;;;;;;;;;;;11.49;67.02;101019.41;5061287;28;19927;-65
2022/04/29 12:54:05;;;;;;;;;;;;;;;11.47;67.19;101013.28;5061327;28;20407;-65
2022/04/29 12:56:54;;;;;;;;;;;;;;;11.47;67.03;101024.53;5061622;28;19966;-65
2022/04/29 12:59:47;;;;;;;;;;;;;;;11.48;67.16;101017.66;5060706;28;20432;-65
2022/04/29 13:02:31;;;;;;;;;;;;;;;11.50;66.82;101016.84;5076015;28;19927;-65
2022/04/29 13:05:26;;;;;;;;;;;;;;;11.49;66.92;101025.47;5076161;28;20395;-66
2022/04/29 13:08:19;;;;;;;;;;;;;;;11.51;66.89;101028.13;5061391;28;19970;-66
2022/04/29 13:11:09;;;;;;;;;;;;;;;11.50;67.16;101031.56;5060952;28;20486;-65
2022/04/29 13:13:59;;;;;;;;;;;;;;;11.48;67.08;101026.31;5061381;28;19966;-65
2022/04/29 13:16:44;;;;;;;;;;;;;;;11.50;66.91;101026.34;5089738;28;19986;-65
2022/04/29 13:19:34;;;;;;;;;;;;;;;11.48;67.17;101026.31;5060702;28;19993;-65
2022/04/29 13:22:23;;;;;;;;;;;;;;;11.50;66.78;101021.16;5060769;28;19965;-65
2022/04/29 13:25:12;;;;;;;;;;;;;;;11.49;67.31;101011.63;5060314;28;19927;-65
2022/04/29 13:28:02;;;;;;;;;;;;;;;11.50;67.15;101003.00;5061038;28;20353;-65
2022/04/29 13:30:47;;;;;;;;;;;;;;;11.51;66.84;101008.22;5075979;28;19987;-65
2022/04/29 13:33:33;;;;;;;;;;;;;;;11.52;67.27;101019.50;5075795;28;19927;-66
2022/04/29 13:36:17;;;;;;;;;;;;;;;11.53;67.10;101001.34;5060704;28;19927;-65
2022/04/29 13:39:04;;;;;;;;;;;;;;;11.52;66.99;100991.81;5075380;28;19998;-65
2022/04/29 13:41:54;;;;;;;;;;;;;;;11.54;67.12;100994.44;5088996;28;20313;-65
2022/04/29 13:44:42;;;;;;;;;;;;;;;11.54;67.19;100991.84;5089605;28;19927;-66
2022/04/29 13:47:34;;;;;;;;;;;;;;;11.55;67.10;100985.81;5060819;28;20020;-65
2022/04/29 13:50:24;;;;;;;;;;;;;;;11.54;66.71;100977.16;5060591;28;19926;-66
2022/04/29 13:53:16;;;;;;;;;;;;;;;11.53;66.98;100985.78;5060245;28;20008;-65
2022/04/29 13:56:12;;;;;;;;;;;;;;;11.56;66.92;100982.38;5060231;28;20007;-65
2022/04/29 13:59:04;;;;;;;;;;;;;;;11.57;67.05;100982.44;5059688;28;19947;-65
2022/04/29 14:01:48;;;;;;;;;;;;;;;11.57;67.01;100982.44;5060343;28;19991;-66
2022/04/29 14:04:35;;;;;;;;;;;;;;;11.56;66.85;100975.47;5074680;28;20006;-65
2022/04/29 14:07:19;;;;;;;;;;;;;;;11.58;66.81;100979.00;5088762;28;19943;-65
2022/04/29 14:10:09;;;;;;;;;;;;;;;11.59;67.02;100974.69;5075304;28;19943;-65
2022/04/29 14:12:59;;;;;;;;;;;;;;;11.58;67.04;100968.63;5059761;28;19928;-65
2022/04/29 14:15:48;;;;;;;;;;;;;;;11.60;67.12;100966.06;5074796;28;19927;-65
2022/04/29 14:18:40;;;;;;;;;;;;;;;11.62;67.00;100966.97;5059825;28;20410;-66
2022/04/29 14:21:27;;;;;;;;;;;;;;;11.63;67.18;100965.25;5059949;28;19928;-65
2022/04/29 14:24:17;;;;;;;;;;;;;;;11.62;66.64;100971.28;5088417;28;19928;-65
2022/04/29 14:27:04;;;;;;;;;;;;;;;11.62;67.21;100969.56;5059597;28;20018;-65
2022/04/29 14:29:49;;;;;;;;;;;;;;;11.64;66.57;100967.00;5059777;28;20050;-65
2022/04/29 14:32:33;;;;;;;;;;;;;;;11.65;67.03;100966.16;5088036;28;19974;-65
2022/04/29 14:35:26;;;;;;;;;;;;;;;11.65;67.14;100967.06;5059487;28;19963;-65
2022/04/29 14:38:19;;;;;;;;;;;;;;;11.65;67.01;100964.47;5074471;28;19928;-65
2022/04/29 14:41:15;;;;;;;;;;;;;;;11.64;66.63;100965.31;5087765;28;19981;-65
2022/04/29 14:44:05;;;;;;;;;;;;;;;11.63;66.93;100960.06;5087765;28;19928;-65
2022/04/29 14:46:55;;;;;;;;;;;;;;;11.63;67.11;100965.25;5059245;28;20390;-66
2022/04/29 14:49:44;;;;;;;;;;;;;;;11.61;67.06;100966.91;5059470;28;19981;-65
2022/04/29 14:52:34;;;;;;;;;;;;;;;11.60;66.68;100960.00;5058914;28;19927;-65
2022/04/29 14:55:19;;;;;;;;;;;;;;;11.62;66.78;100960.88;5058962;28;19927;-67
2022/04/29 14:58:03;;;;;;;;;;;;;;;11.61;67.19;100966.91;5074423;28;19927;-65
2022/04/29 15:01:00;;;;;;;;;;;;;;;11.60;66.74;100967.78;5058985;28;20065;-65